createdAt,value
2023-05-14T00:01:57.378Z,97.76
2023-05-14T00:06:11.146Z,98.66
2023-05-14T00:10:23.730Z,98.28
2023-05-14T00:14:36.291Z,97.59
2023-05-14T00:18:48.726Z,97.44
2023-05-14T00:23:01.407Z,97.79
2023-05-14T00:27:14.305Z,96.89
2023-05-14T00:31:26.739Z,97.49
2023-05-14T00:35:39.317Z,96.87
2023-05-14T00:39:51.636Z,96.57
2023-05-14T00:44:04.159Z,97.27
2023-05-14T00:48:16.650Z,97.91
2023-05-14T00:52:29.255Z,97.99
2023-05-14T00:56:42.459Z,98.27
2023-05-14T01:00:54.953Z,98.64
2023-05-14T01:05:08.841Z,98.63
2023-05-14T01:09:44.111Z,98.84
2023-05-14T01:14:18.997Z,97.87
2023-05-14T01:18:33.401Z,97.43
2023-05-14T01:22:46.077Z,98.12
2023-05-14T01:27:07.368Z,98.22
2023-05-14T01:31:28.112Z,98.63
2023-05-14T01:35:41.756Z,98.49
2023-05-14T01:39:56.362Z,99.24
2023-05-14T01:44:10.183Z,98.94
2023-05-14T01:48:23.245Z,98.74
2023-05-14T01:52:36.765Z,99.08
2023-05-14T01:56:49.229Z,99.74
2023-05-14T02:01:02.211Z,99.93
2023-05-14T02:05:14.850Z,100.00
2023-05-14T02:09:27.259Z,100.00
2023-05-14T02:13:39.748Z,100.00
2023-05-14T02:17:52.227Z,100.00
2023-05-14T02:22:04.794Z,100.00
2023-05-14T02:26:17.630Z,100.00
2023-05-14T02:30:31.592Z,100.00
2023-05-14T02:34:44.032Z,100.00
2023-05-14T02:38:56.542Z,100.00
2023-05-14T02:43:08.997Z,100.00
2023-05-14T02:47:21.724Z,100.00
2023-05-14T02:51:35.645Z,100.00
2023-05-14T02:55:48.026Z,100.00
2023-05-14T03:00:00.423Z,100.00
2023-05-14T03:04:13.287Z,100.00
2023-05-14T03:08:26.117Z,100.00
2023-05-14T03:12:38.449Z,100.00
2023-05-14T03:16:51.008Z,100.00
2023-05-14T03:21:04.282Z,100.00
2023-05-14T03:25:16.744Z,100.00
2023-05-14T03:29:29.162Z,100.00
2023-05-14T03:33:41.761Z,100.00
2023-05-14T03:37:54.369Z,100.00
2023-05-14T03:42:06.991Z,100.00
2023-05-14T03:46:19.489Z,100.00
2023-05-14T03:50:32.269Z,100.00
2023-05-14T03:54:44.853Z,100.00
2023-05-14T03:58:57.385Z,100.00
2023-05-14T04:03:10.218Z,100.00
2023-05-14T04:07:22.868Z,100.00
2023-05-14T04:11:35.318Z,100.00
2023-05-14T04:15:47.758Z,100.00
2023-05-14T04:20:00.249Z,100.00
2023-05-14T04:24:12.701Z,100.00
2023-05-14T04:28:25.260Z,100.00
2023-05-14T04:32:38.291Z,100.00
2023-05-14T04:36:51.586Z,100.00
2023-05-14T04:41:04.149Z,100.00
2023-05-14T04:45:17.086Z,100.00
2023-05-14T04:49:29.959Z,100.00
2023-05-14T04:53:42.447Z,100.00
2023-05-14T04:57:55.050Z,100.00
2023-05-14T05:02:07.459Z,100.00
2023-05-14T05:06:19.852Z,100.00
2023-05-14T05:10:32.213Z,100.00
2023-05-14T05:14:44.519Z,100.00
2023-05-14T05:18:57.062Z,100.00
2023-05-14T05:23:09.510Z,100.00
2023-05-14T05:27:22.333Z,100.00
2023-05-14T05:31:34.941Z,100.00
2023-05-14T05:35:48.526Z,100.00
2023-05-14T05:40:01.051Z,100.00
2023-05-14T05:44:13.482Z,100.00
2023-05-14T05:48:25.970Z,100.00
2023-05-14T05:52:39.239Z,98.82
2023-05-14T05:56:52.260Z,96.72
2023-05-14T06:01:04.674Z,93.51
2023-05-14T06:05:17.253Z,95.16
2023-05-14T06:09:30.956Z,94.40
2023-05-14T06:13:43.464Z,93.82
2023-05-14T06:17:55.972Z,91.89
2023-05-14T06:22:08.377Z,91.46
2023-05-14T06:26:21.332Z,90.75
2023-05-14T06:30:33.756Z,90.99
2023-05-14T06:34:46.183Z,91.63
2023-05-14T06:38:58.556Z,92.41
2023-05-14T06:43:10.946Z,92.54
2023-05-14T06:47:23.494Z,91.57
2023-05-14T06:51:36.062Z,89.40
2023-05-14T06:55:49.091Z,88.21
2023-05-14T07:00:03.243Z,88.58
2023-05-14T07:04:16.335Z,88.05
2023-05-14T07:08:28.827Z,84.72
2023-05-14T07:12:41.341Z,83.31
2023-05-14T07:16:53.962Z,80.28
2023-05-14T07:21:06.849Z,82.44
2023-05-14T07:25:19.298Z,79.36
2023-05-14T07:29:31.741Z,74.15
2023-05-14T07:33:44.202Z,74.29
2023-05-14T07:37:56.702Z,70.26
2023-05-14T07:42:09.481Z,68.83
2023-05-14T07:46:21.959Z,67.51
2023-05-14T07:50:34.546Z,69.56
2023-05-14T07:54:48.028Z,68.35
2023-05-14T07:59:01.868Z,70.21
2023-05-14T08:03:14.457Z,70.75
2023-05-14T08:07:28.781Z,69.61
2023-05-14T08:11:41.187Z,66.11
2023-05-14T08:15:53.628Z,65.37
2023-05-14T08:20:07.744Z,65.55
2023-05-14T08:24:20.177Z,63.17
2023-05-14T08:28:32.775Z,64.59
2023-05-14T08:32:45.241Z,65.55
2023-05-14T08:36:57.817Z,63.59
2023-05-14T08:41:12.020Z,60.66
2023-05-14T08:45:34.208Z,63.34
2023-05-14T08:50:07.692Z,63.18
2023-05-14T08:54:22.758Z,62.75
2023-05-14T08:58:35.123Z,63.00
2023-05-14T09:02:49.148Z,62.95
2023-05-14T09:07:02.972Z,63.09
2023-05-14T09:11:15.280Z,63.61
2023-05-14T09:15:29.858Z,62.62
2023-05-14T09:19:44.195Z,65.23
2023-05-14T09:23:57.926Z,64.70
2023-05-14T09:28:10.413Z,67.33
2023-05-14T09:32:22.832Z,67.59
2023-05-14T09:36:35.614Z,67.17
2023-05-14T09:40:49.487Z,65.30
2023-05-14T09:45:02.092Z,64.57
2023-05-14T09:49:15.058Z,66.26
2023-05-14T09:53:27.671Z,65.34
2023-05-14T09:57:40.246Z,67.28
2023-05-14T10:01:53.298Z,65.51
2023-05-14T10:06:07.072Z,65.79
2023-05-14T10:10:21.297Z,64.46
2023-05-14T10:14:41.568Z,64.66
2023-05-14T10:18:59.511Z,65.55
2023-05-14T10:23:12.576Z,64.42
2023-05-14T10:27:25.994Z,64.20
2023-05-14T10:31:57.190Z,62.54
2023-05-14T10:36:10.793Z,57.06
2023-05-14T10:40:24.978Z,59.58
2023-05-14T10:44:47.599Z,60.53
2023-05-14T10:49:00.117Z,57.08
2023-05-14T10:53:14.036Z,55.52
2023-05-14T10:57:28.904Z,55.84
2023-05-14T11:01:41.648Z,59.26
2023-05-14T11:05:55.445Z,56.87
2023-05-14T11:10:10.137Z,59.60
2023-05-14T11:14:23.403Z,62.23
2023-05-14T11:18:38.962Z,59.38
2023-05-14T11:22:54.118Z,61.82
2023-05-14T11:27:09.639Z,64.78
2023-05-14T11:31:23.643Z,67.11
2023-05-14T11:35:37.226Z,68.31
2023-05-14T11:39:51.375Z,70.40
2023-05-14T11:44:04.083Z,69.30
2023-05-14T11:48:16.556Z,67.84
2023-05-14T11:52:29.145Z,67.99
2023-05-14T11:56:41.539Z,70.29
2023-05-14T12:00:55.884Z,70.70
2023-05-14T12:05:09.387Z,77.23
2023-05-14T12:09:22.928Z,74.79
2023-05-14T12:13:37.451Z,77.29
2023-05-14T12:17:52.033Z,79.01
2023-05-14T12:22:04.690Z,80.44
2023-05-14T12:26:17.219Z,79.14
2023-05-14T12:30:38.441Z,80.77
2023-05-14T12:34:51.110Z,82.41
2023-05-14T12:39:04.304Z,81.92
2023-05-14T12:43:16.671Z,83.86
2023-05-14T12:47:29.241Z,84.98
2023-05-14T12:51:41.929Z,85.26
2023-05-14T12:55:55.904Z,84.36
2023-05-14T13:00:14.079Z,81.45
2023-05-14T13:04:27.063Z,81.30
2023-05-14T13:08:41.017Z,82.64
2023-05-14T13:12:56.632Z,83.32
2023-05-14T13:17:09.080Z,85.18
2023-05-14T13:21:21.926Z,81.95
2023-05-14T13:25:34.841Z,86.20
2023-05-14T13:29:47.321Z,84.31
2023-05-14T13:33:59.975Z,84.40
2023-05-14T13:38:12.349Z,85.97
2023-05-14T13:42:24.779Z,85.41
2023-05-14T13:46:37.281Z,80.95
2023-05-14T13:50:50.058Z,79.85
2023-05-14T13:55:02.452Z,80.39
2023-05-14T13:59:15.587Z,79.69
2023-05-14T14:03:27.989Z,75.83
2023-05-14T14:07:41.049Z,75.83
2023-05-14T14:11:53.719Z,74.41
2023-05-14T14:16:07.118Z,73.43
2023-05-14T14:20:19.504Z,73.10
2023-05-14T14:24:31.921Z,70.97
2023-05-14T14:28:44.307Z,70.21
2023-05-14T14:32:57.145Z,70.56
2023-05-14T14:37:09.665Z,68.26
2023-05-14T14:41:22.684Z,68.01
2023-05-14T14:45:35.283Z,66.32
2023-05-14T14:49:47.797Z,65.10
2023-05-14T14:54:00.370Z,64.60
2023-05-14T14:58:12.878Z,63.35
2023-05-14T15:02:25.918Z,63.58
2023-05-14T15:06:38.418Z,64.56
2023-05-14T15:10:50.901Z,63.74
2023-05-14T15:15:03.370Z,63.56
2023-05-14T15:19:15.841Z,62.97
2023-05-14T15:23:28.343Z,62.88
2023-05-14T15:27:40.904Z,63.48
2023-05-14T15:31:53.421Z,64.18
2023-05-14T15:36:08.524Z,64.54
2023-05-14T15:40:21.085Z,65.46
2023-05-14T15:44:33.568Z,67.13
2023-05-14T15:48:46.141Z,69.35
2023-05-14T15:52:58.550Z,69.22
2023-05-14T15:57:11.088Z,69.62
2023-05-14T16:01:23.486Z,68.64
2023-05-14T16:05:36.846Z,68.06
2023-05-14T16:09:49.204Z,66.77
2023-05-14T16:14:01.602Z,66.23
2023-05-14T16:18:14.028Z,65.97
2023-05-14T16:22:27.043Z,64.60
2023-05-14T16:26:40.273Z,64.71
2023-05-14T16:30:52.710Z,63.34
2023-05-14T16:35:05.494Z,61.26
2023-05-14T16:39:17.855Z,61.83
2023-05-14T16:43:30.357Z,63.15
2023-05-14T16:47:42.780Z,63.77
2023-05-14T16:51:55.263Z,65.16
2023-05-14T16:56:07.878Z,65.52
2023-05-14T17:00:20.283Z,66.37
2023-05-14T17:04:33.652Z,68.68
2023-05-14T17:08:46.207Z,70.04
2023-05-14T17:12:58.757Z,70.83
2023-05-14T17:17:11.287Z,70.47
2023-05-14T17:21:23.865Z,70.41
2023-05-14T17:25:36.302Z,70.37
2023-05-14T17:29:51.255Z,71.13
2023-05-14T17:34:03.736Z,72.72
2023-05-14T17:38:16.042Z,73.35
2023-05-14T17:42:28.620Z,73.28
2023-05-14T17:46:42.017Z,76.57
2023-05-14T17:50:54.536Z,78.70
2023-05-14T17:55:07.277Z,80.24
2023-05-14T17:59:19.837Z,81.25
2023-05-14T18:03:32.446Z,81.80
2023-05-14T18:07:44.936Z,82.08
2023-05-14T18:11:57.391Z,83.12
2023-05-14T18:16:09.867Z,83.14
2023-05-14T18:20:22.233Z,83.29
2023-05-14T18:24:34.583Z,83.10
2023-05-14T18:28:47.017Z,83.03
2023-05-14T18:33:00.154Z,83.48
2023-05-14T18:37:12.851Z,84.34
2023-05-14T18:41:25.332Z,84.29
2023-05-14T18:45:37.897Z,84.10
2023-05-14T18:49:55.152Z,84.21
2023-05-14T18:54:07.563Z,83.84
2023-05-14T18:58:19.998Z,83.91
2023-05-14T19:02:32.539Z,83.96
2023-05-14T19:06:45.127Z,84.25
2023-05-14T19:10:57.670Z,84.24
2023-05-14T19:15:10.973Z,85.45
2023-05-14T19:19:23.482Z,86.02
2023-05-14T19:23:36.013Z,87.28
2023-05-14T19:27:51.348Z,88.24
2023-05-14T19:32:04.917Z,89.10
2023-05-14T19:36:17.382Z,89.41
2023-05-14T19:40:29.892Z,90.31
2023-05-14T19:44:42.209Z,93.84
2023-05-14T19:48:57.578Z,96.86
2023-05-14T19:53:10.107Z,98.36
2023-05-14T19:57:22.742Z,100.00
2023-05-14T20:01:35.331Z,100.00
2023-05-14T20:05:49.221Z,100.00
2023-05-14T20:10:01.766Z,100.00
2023-05-14T20:14:14.592Z,100.00
2023-05-14T20:18:28.539Z,100.00
2023-05-14T20:22:42.880Z,99.49
2023-05-14T20:26:55.525Z,99.51
2023-05-14T20:31:08.290Z,98.50
2023-05-14T20:35:20.872Z,98.42
2023-05-14T20:39:33.401Z,98.19
2023-05-14T20:43:46.094Z,97.62
2023-05-14T20:47:59.835Z,96.99
2023-05-14T20:52:13.678Z,95.52
2023-05-14T20:56:26.920Z,95.01
2023-05-14T21:00:39.505Z,93.43
2023-05-14T21:04:52.529Z,94.24
2023-05-14T21:09:06.238Z,94.65
2023-05-14T21:13:18.854Z,95.57
2023-05-14T21:17:31.476Z,96.47
2023-05-14T21:21:44.075Z,95.37
2023-05-14T21:25:56.623Z,95.28
2023-05-14T21:30:09.672Z,93.16
2023-05-14T21:34:22.162Z,87.06
2023-05-14T21:38:35.332Z,85.89
2023-05-14T21:42:47.800Z,87.89
2023-05-14T21:47:00.177Z,82.68
2023-05-14T21:51:12.695Z,84.04
2023-05-14T21:55:26.011Z,85.17
2023-05-14T21:59:38.509Z,85.56
2023-05-14T22:03:50.969Z,80.85
2023-05-14T22:08:03.398Z,78.58
2023-05-14T22:12:16.115Z,79.70
2023-05-14T22:16:28.462Z,76.12
2023-05-14T22:20:40.840Z,79.06
2023-05-14T22:24:53.217Z,75.97
2023-05-14T22:29:05.607Z,75.25
2023-05-14T22:33:19.796Z,70.70
2023-05-14T22:37:32.258Z,71.72
2023-05-14T22:41:44.655Z,74.34
2023-05-14T22:45:57.063Z,76.29
2023-05-14T22:50:11.865Z,80.96
2023-05-14T22:54:24.246Z,83.34
2023-05-14T22:58:37.854Z,85.57
2023-05-14T23:02:50.342Z,83.78
2023-05-14T23:07:03.047Z,85.46
2023-05-14T23:11:15.910Z,85.03
2023-05-14T23:15:28.377Z,86.96
2023-05-14T23:19:42.100Z,89.49
2023-05-14T23:23:54.553Z,91.13
2023-05-14T23:28:07.406Z,92.64
2023-05-14T23:32:20.171Z,92.96
2023-05-14T23:36:36.308Z,92.87
2023-05-14T23:40:48.714Z,94.27
2023-05-14T23:45:03.626Z,95.69
2023-05-14T23:49:16.164Z,96.95
2023-05-14T23:53:28.550Z,97.59
2023-05-14T23:57:41.512Z,96.99
